sensor_id;sensor_type;location;lat;lon;timestamp;P1;durP1;ratioP1;P2;durP2;ratioP2
41297;SDS011;27381;46.032;13.650;2022-10-26T00:00:37;1.77;;;0.80;;
41297;SDS011;27381;46.032;13.650;2022-10-26T00:03:03;1.00;;;0.82;;
41297;SDS011;27381;46.032;13.650;2022-10-26T00:05:31;1.25;;;0.90;;
41297;SDS011;27381;46.032;13.650;2022-10-26T00:07:56;3.50;;;0.63;;
41297;SDS011;27381;46.032;13.650;2022-10-26T00:10:22;1.67;;;1.00;;
41297;SDS011;27381;46.032;13.650;2022-10-26T00:12:48;2.05;;;0.80;;
41297;SDS011;27381;46.032;13.650;2022-10-26T00:15:14;1.13;;;0.52;;
41297;SDS011;27381;46.032;13.650;2022-10-26T00:17:40;3.15;;;0.73;;
41297;SDS011;27381;46.032;13.650;2022-10-26T00:20:05;1.13;;;0.60;;
41297;SDS011;27381;46.032;13.650;2022-10-26T00:22:31;3.30;;;0.50;;
41297;SDS011;27381;46.032;13.650;2022-10-26T00:24:56;2.17;;;0.80;;
41297;SDS011;27381;46.032;13.650;2022-10-26T00:27:22;4.18;;;0.60;;
41297;SDS011;27381;46.032;13.650;2022-10-26T00:29:47;1.52;;;0.50;;
41297;SDS011;27381;46.032;13.650;2022-10-26T00:32:12;1.20;;;0.60;;
41297;SDS011;27381;46.032;13.650;2022-10-26T00:34:38;1.45;;;0.90;;
41297;SDS011;27381;46.032;13.650;2022-10-26T00:37:03;0.85;;;0.50;;
41297;SDS011;27381;46.032;13.650;2022-10-26T00:39:28;4.18;;;0.70;;
41297;SDS011;27381;46.032;13.650;2022-10-26T00:41:54;6.97;;;0.55;;
41297;SDS011;27381;46.032;13.650;2022-10-26T00:47:04;2.33;;;0.70;;
41297;SDS011;27381;46.032;13.650;2022-10-26T00:49:29;1.30;;;0.60;;
41297;SDS011;27381;46.032;13.650;2022-10-26T00:51:55;1.55;;;0.57;;
41297;SDS011;27381;46.032;13.650;2022-10-26T00:54:20;1.65;;;0.55;;
41297;SDS011;27381;46.032;13.650;2022-10-26T00:56:46;0.57;;;0.43;;
41297;SDS011;27381;46.032;13.650;2022-10-26T00:59:14;1.48;;;1.05;;
41297;SDS011;27381;46.032;13.650;2022-10-26T01:01:40;0.82;;;0.63;;
41297;SDS011;27381;46.032;13.650;2022-10-26T01:04:07;0.85;;;0.43;;
41297;SDS011;27381;46.032;13.650;2022-10-26T01:06:33;1.48;;;0.88;;
41297;SDS011;27381;46.032;13.650;2022-10-26T01:09:00;2.00;;;0.93;;
41297;SDS011;27381;46.032;13.650;2022-10-26T01:11:25;2.10;;;0.65;;
41297;SDS011;27381;46.032;13.650;2022-10-26T01:13:51;1.17;;;0.77;;
41297;SDS011;27381;46.032;13.650;2022-10-26T01:21:40;1.45;;;0.50;;
41297;SDS011;27381;46.032;13.650;2022-10-26T01:24:15;6.50;;;0.65;;
41297;SDS011;27381;46.032;13.650;2022-10-26T01:31:49;3.97;;;0.88;;
41297;SDS011;27381;46.032;13.650;2022-10-26T01:34:20;0.75;;;0.45;;
41297;SDS011;27381;46.032;13.650;2022-10-26T01:36:52;1.17;;;0.60;;
41297;SDS011;27381;46.032;13.650;2022-10-26T01:41:51;0.85;;;0.80;;
41297;SDS011;27381;46.032;13.650;2022-10-26T01:46:42;2.05;;;0.80;;
41297;SDS011;27381;46.032;13.650;2022-10-26T01:49:10;0.50;;;0.50;;
41297;SDS011;27381;46.032;13.650;2022-10-26T01:51:39;3.97;;;0.75;;
41297;SDS011;27381;46.032;13.650;2022-10-26T01:54:05;1.80;;;0.63;;
41297;SDS011;27381;46.032;13.650;2022-10-26T01:56:33;3.60;;;0.50;;
41297;SDS011;27381;46.032;13.650;2022-10-26T02:03:56;1.52;;;0.50;;
41297;SDS011;27381;46.032;13.650;2022-10-26T02:06:38;1.33;;;0.65;;
41297;SDS011;27381;46.032;13.650;2022-10-26T02:09:19;2.00;;;0.88;;
41297;SDS011;27381;46.032;13.650;2022-10-26T02:11:49;0.95;;;0.52;;
41297;SDS011;27381;46.032;13.650;2022-10-26T02:14:31;0.57;;;0.35;;
41297;SDS011;27381;46.032;13.650;2022-10-26T02:17:05;2.67;;;1.00;;
41297;SDS011;27381;46.032;13.650;2022-10-26T02:22:08;1.77;;;0.50;;
41297;SDS011;27381;46.032;13.650;2022-10-26T02:24:37;0.60;;;0.60;;
41297;SDS011;27381;46.032;13.650;2022-10-26T02:27:04;0.82;;;0.75;;
41297;SDS011;27381;46.032;13.650;2022-10-26T02:29:31;1.00;;;0.60;;
41297;SDS011;27381;46.032;13.650;2022-10-26T02:31:58;0.47;;;0.47;;
41297;SDS011;27381;46.032;13.650;2022-10-26T02:34:24;4.30;;;1.08;;
41297;SDS011;27381;46.032;13.650;2022-10-26T02:36:52;2.05;;;0.63;;
41297;SDS011;27381;46.032;13.650;2022-10-26T02:39:18;1.70;;;0.70;;
41297;SDS011;27381;46.032;13.650;2022-10-26T02:41:44;0.40;;;0.40;;
41297;SDS011;27381;46.032;13.650;2022-10-26T02:44:23;0.88;;;0.50;;
41297;SDS011;27381;46.032;13.650;2022-10-26T02:46:50;3.40;;;0.82;;
41297;SDS011;27381;46.032;13.650;2022-10-26T02:49:17;3.13;;;1.08;;
41297;SDS011;27381;46.032;13.650;2022-10-26T02:51:48;0.22;;;0.22;;
41297;SDS011;27381;46.032;13.650;2022-10-26T02:59:05;0.68;;;0.47;;
41297;SDS011;27381;46.032;13.650;2022-10-26T03:01:32;0.50;;;0.50;;
41297;SDS011;27381;46.032;13.650;2022-10-26T03:03:58;0.55;;;0.45;;
41297;SDS011;27381;46.032;13.650;2022-10-26T03:06:24;0.40;;;0.30;;
41297;SDS011;27381;46.032;13.650;2022-10-26T03:08:50;2.05;;;0.82;;
41297;SDS011;27381;46.032;13.650;2022-10-26T03:11:16;2.75;;;0.68;;
41297;SDS011;27381;46.032;13.650;2022-10-26T03:13:41;0.52;;;0.40;;
41297;SDS011;27381;46.032;13.650;2022-10-26T03:16:07;9.35;;;0.80;;
41297;SDS011;27381;46.032;13.650;2022-10-26T03:18:32;0.68;;;0.50;;
41297;SDS011;27381;46.032;13.650;2022-10-26T03:20:57;1.15;;;0.47;;
41297;SDS011;27381;46.032;13.650;2022-10-26T03:23:23;0.22;;;0.22;;
41297;SDS011;27381;46.032;13.650;2022-10-26T03:25:48;0.30;;;0.30;;
41297;SDS011;27381;46.032;13.650;2022-10-26T03:28:14;0.40;;;0.35;;
41297;SDS011;27381;46.032;13.650;2022-10-26T03:30:39;0.52;;;0.52;;
41297;SDS011;27381;46.032;13.650;2022-10-26T03:33:05;0.40;;;0.40;;
41297;SDS011;27381;46.032;13.650;2022-10-26T03:35:30;0.70;;;0.60;;
41297;SDS011;27381;46.032;13.650;2022-10-26T03:37:55;0.65;;;0.50;;
41297;SDS011;27381;46.032;13.650;2022-10-26T03:40:21;0.55;;;0.40;;
41297;SDS011;27381;46.032;13.650;2022-10-26T03:42:46;0.38;;;0.38;;
41297;SDS011;27381;46.032;13.650;2022-10-26T03:45:11;5.93;;;0.88;;
41297;SDS011;27381;46.032;13.650;2022-10-26T03:47:44;1.65;;;0.70;;
41297;SDS011;27381;46.032;13.650;2022-10-26T03:50:10;0.95;;;0.40;;
41297;SDS011;27381;46.032;13.650;2022-10-26T03:52:36;0.63;;;0.40;;
41297;SDS011;27381;46.032;13.650;2022-10-26T03:55:01;2.13;;;0.60;;
41297;SDS011;27381;46.032;13.650;2022-10-26T03:57:27;1.05;;;0.65;;
41297;SDS011;27381;46.032;13.650;2022-10-26T03:59:52;0.73;;;0.50;;
41297;SDS011;27381;46.032;13.650;2022-10-26T04:02:17;0.68;;;0.60;;
41297;SDS011;27381;46.032;13.650;2022-10-26T04:04:43;0.73;;;0.60;;
41297;SDS011;27381;46.032;13.650;2022-10-26T04:07:08;0.65;;;0.40;;
41297;SDS011;27381;46.032;13.650;2022-10-26T04:09:34;2.83;;;1.05;;
41297;SDS011;27381;46.032;13.650;2022-10-26T04:12:00;1.45;;;0.55;;
41297;SDS011;27381;46.032;13.650;2022-10-26T04:14:25;0.90;;;0.35;;
41297;SDS011;27381;46.032;13.650;2022-10-26T04:16:51;0.60;;;0.40;;
41297;SDS011;27381;46.032;13.650;2022-10-26T04:19:16;0.80;;;0.38;;
41297;SDS011;27381;46.032;13.650;2022-10-26T04:21:41;0.32;;;0.32;;
41297;SDS011;27381;46.032;13.650;2022-10-26T04:24:08;3.47;;;0.60;;
41297;SDS011;27381;46.032;13.650;2022-10-26T04:26:33;1.88;;;0.40;;
41297;SDS011;27381;46.032;13.650;2022-10-26T04:28:59;4.22;;;0.50;;
41297;SDS011;27381;46.032;13.650;2022-10-26T04:31:24;1.05;;;0.40;;
41297;SDS011;27381;46.032;13.650;2022-10-26T04:33:50;0.70;;;0.70;;
41297;SDS011;27381;46.032;13.650;2022-10-26T04:36:15;0.60;;;0.60;;
41297;SDS011;27381;46.032;13.650;2022-10-26T04:38:41;0.52;;;0.45;;
41297;SDS011;27381;46.032;13.650;2022-10-26T04:41:06;0.60;;;0.50;;
41297;SDS011;27381;46.032;13.650;2022-10-26T04:43:31;0.93;;;0.65;;
41297;SDS011;27381;46.032;13.650;2022-10-26T04:45:57;1.48;;;0.80;;
41297;SDS011;27381;46.032;13.650;2022-10-26T04:48:23;1.10;;;1.00;;
41297;SDS011;27381;46.032;13.650;2022-10-26T04:50:48;0.60;;;0.47;;
41297;SDS011;27381;46.032;13.650;2022-10-26T04:53:14;1.35;;;0.52;;
41297;SDS011;27381;46.032;13.650;2022-10-26T04:55:39;2.05;;;0.70;;
41297;SDS011;27381;46.032;13.650;2022-10-26T04:58:05;7.13;;;0.68;;
41297;SDS011;27381;46.032;13.650;2022-10-26T05:00:30;0.55;;;0.47;;
41297;SDS011;27381;46.032;13.650;2022-10-26T05:03:04;1.08;;;0.75;;
41297;SDS011;27381;46.032;13.650;2022-10-26T05:05:30;1.35;;;0.80;;
41297;SDS011;27381;46.032;13.650;2022-10-26T05:07:56;0.40;;;0.35;;
41297;SDS011;27381;46.032;13.650;2022-10-26T05:10:22;0.68;;;0.30;;
41297;SDS011;27381;46.032;13.650;2022-10-26T05:12:54;0.30;;;0.30;;
41297;SDS011;27381;46.032;13.650;2022-10-26T05:15:20;9.65;;;1.13;;
41297;SDS011;27381;46.032;13.650;2022-10-26T05:17:55;1.90;;;0.40;;
41297;SDS011;27381;46.032;13.650;2022-10-26T05:20:21;1.13;;;0.90;;
41297;SDS011;27381;46.032;13.650;2022-10-26T05:22:53;0.40;;;0.40;;
41297;SDS011;27381;46.032;13.650;2022-10-26T05:25:18;0.30;;;0.10;;
41297;SDS011;27381;46.032;13.650;2022-10-26T05:27:44;0.60;;;0.40;;
41297;SDS011;27381;46.032;13.650;2022-10-26T05:30:09;5.47;;;0.45;;
41297;SDS011;27381;46.032;13.650;2022-10-26T05:32:35;1.40;;;0.60;;
41297;SDS011;27381;46.032;13.650;2022-10-26T05:35:00;0.57;;;0.50;;
41297;SDS011;27381;46.032;13.650;2022-10-26T05:37:29;1.40;;;0.30;;
41297;SDS011;27381;46.032;13.650;2022-10-26T05:39:56;0.75;;;0.50;;
41297;SDS011;27381;46.032;13.650;2022-10-26T05:42:22;0.45;;;0.45;;
41297;SDS011;27381;46.032;13.650;2022-10-26T05:44:49;0.65;;;0.40;;
41297;SDS011;27381;46.032;13.650;2022-10-26T05:47:15;3.63;;;0.40;;
41297;SDS011;27381;46.032;13.650;2022-10-26T05:49:40;1.05;;;0.73;;
41297;SDS011;27381;46.032;13.650;2022-10-26T05:52:05;1.55;;;0.88;;
41297;SDS011;27381;46.032;13.650;2022-10-26T05:54:31;1.13;;;0.65;;
41297;SDS011;27381;46.032;13.650;2022-10-26T05:56:56;0.60;;;0.40;;
41297;SDS011;27381;46.032;13.650;2022-10-26T05:59:22;0.40;;;0.40;;
41297;SDS011;27381;46.032;13.650;2022-10-26T06:02:05;0.73;;;0.65;;
41297;SDS011;27381;46.032;13.650;2022-10-26T06:07:03;14.77;;;1.50;;
41297;SDS011;27381;46.032;13.650;2022-10-26T06:09:33;1.92;;;0.88;;
41297;SDS011;27381;46.032;13.650;2022-10-26T06:11:59;1.63;;;0.70;;
41297;SDS011;27381;46.032;13.650;2022-10-26T06:14:26;1.33;;;0.90;;
41297;SDS011;27381;46.032;13.650;2022-10-26T06:30:00;0.55;;;0.45;;
41297;SDS011;27381;46.032;13.650;2022-10-26T06:32:26;0.63;;;0.50;;
41297;SDS011;27381;46.032;13.650;2022-10-26T06:34:54;1.00;;;0.73;;
41297;SDS011;27381;46.032;13.650;2022-10-26T06:37:21;2.92;;;0.80;;
41297;SDS011;27381;46.032;13.650;2022-10-26T06:39:48;0.70;;;0.70;;
41297;SDS011;27381;46.032;13.650;2022-10-26T06:42:13;1.40;;;0.50;;
41297;SDS011;27381;46.032;13.650;2022-10-26T06:44:39;0.85;;;0.68;;
41297;SDS011;27381;46.032;13.650;2022-10-26T06:47:17;6.18;;;0.88;;
41297;SDS011;27381;46.032;13.650;2022-10-26T06:52:49;1.58;;;0.85;;
41297;SDS011;27381;46.032;13.650;2022-10-26T06:55:16;1.08;;;0.70;;
41297;SDS011;27381;46.032;13.650;2022-10-26T06:57:42;1.55;;;0.70;;
41297;SDS011;27381;46.032;13.650;2022-10-26T07:02:39;0.40;;;0.35;;
41297;SDS011;27381;46.032;13.650;2022-10-26T07:05:04;1.42;;;0.90;;
41297;SDS011;27381;46.032;13.650;2022-10-26T07:07:34;0.95;;;0.43;;
41297;SDS011;27381;46.032;13.650;2022-10-26T07:10:01;1.35;;;0.60;;
41297;SDS011;27381;46.032;13.650;2022-10-26T07:12:27;1.20;;;0.70;;
41297;SDS011;27381;46.032;13.650;2022-10-26T07:14:52;2.58;;;0.70;;
41297;SDS011;27381;46.032;13.650;2022-10-26T07:17:17;1.77;;;0.50;;
41297;SDS011;27381;46.032;13.650;2022-10-26T07:19:43;1.00;;;0.80;;
41297;SDS011;27381;46.032;13.650;2022-10-26T07:22:09;0.95;;;0.70;;
41297;SDS011;27381;46.032;13.650;2022-10-26T07:24:34;1.38;;;0.85;;
41297;SDS011;27381;46.032;13.650;2022-10-26T07:27:00;0.85;;;0.70;;
41297;SDS011;27381;46.032;13.650;2022-10-26T07:29:25;2.22;;;0.65;;
41297;SDS011;27381;46.032;13.650;2022-10-26T07:31:51;1.88;;;1.25;;
41297;SDS011;27381;46.032;13.650;2022-10-26T07:34:16;2.33;;;0.90;;
41297;SDS011;27381;46.032;13.650;2022-10-26T07:36:42;0.98;;;0.77;;
41297;SDS011;27381;46.032;13.650;2022-10-26T07:39:07;0.77;;;0.68;;
41297;SDS011;27381;46.032;13.650;2022-10-26T07:41:33;0.82;;;0.60;;
41297;SDS011;27381;46.032;13.650;2022-10-26T07:43:58;1.83;;;0.68;;
41297;SDS011;27381;46.032;13.650;2022-10-26T07:46:27;1.02;;;0.82;;
41297;SDS011;27381;46.032;13.650;2022-10-26T07:48:53;1.33;;;0.65;;
41297;SDS011;27381;46.032;13.650;2022-10-26T07:51:18;1.23;;;0.50;;
41297;SDS011;27381;46.032;13.650;2022-10-26T07:53:44;1.33;;;0.70;;
41297;SDS011;27381;46.032;13.650;2022-10-26T07:56:10;0.80;;;0.52;;
41297;SDS011;27381;46.032;13.650;2022-10-26T07:58:36;0.90;;;0.60;;
41297;SDS011;27381;46.032;13.650;2022-10-26T08:01:05;1.05;;;0.60;;
41297;SDS011;27381;46.032;13.650;2022-10-26T08:03:31;1.55;;;0.95;;
41297;SDS011;27381;46.032;13.650;2022-10-26T08:05:57;1.73;;;0.60;;
41297;SDS011;27381;46.032;13.650;2022-10-26T08:08:22;0.60;;;0.50;;
41297;SDS011;27381;46.032;13.650;2022-10-26T08:10:48;0.32;;;0.32;;
41297;SDS011;27381;46.032;13.650;2022-10-26T08:13:13;0.80;;;0.80;;
41297;SDS011;27381;46.032;13.650;2022-10-26T08:15:39;0.75;;;0.57;;
41297;SDS011;27381;46.032;13.650;2022-10-26T08:18:05;0.50;;;0.50;;
41297;SDS011;27381;46.032;13.650;2022-10-26T08:20:30;0.63;;;0.50;;
41297;SDS011;27381;46.032;13.650;2022-10-26T08:22:56;0.82;;;0.60;;
41297;SDS011;27381;46.032;13.650;2022-10-26T08:25:22;0.50;;;0.47;;
41297;SDS011;27381;46.032;13.650;2022-10-26T08:27:47;1.58;;;0.70;;
41297;SDS011;27381;46.032;13.650;2022-10-26T08:30:13;0.95;;;0.50;;
41297;SDS011;27381;46.032;13.650;2022-10-26T08:32:39;1.75;;;0.93;;
41297;SDS011;27381;46.032;13.650;2022-10-26T08:35:04;1.45;;;1.00;;
41297;SDS011;27381;46.032;13.650;2022-10-26T08:37:30;2.47;;;1.30;;
41297;SDS011;27381;46.032;13.650;2022-10-26T08:39:55;1.65;;;0.68;;
41297;SDS011;27381;46.032;13.650;2022-10-26T08:42:27;5.30;;;1.02;;
41297;SDS011;27381;46.032;13.650;2022-10-26T08:44:55;4.07;;;0.90;;
41297;SDS011;27381;46.032;13.650;2022-10-26T08:47:24;2.45;;;1.25;;
41297;SDS011;27381;46.032;13.650;2022-10-26T08:49:53;3.03;;;0.60;;
41297;SDS011;27381;46.032;13.650;2022-10-26T08:52:23;1.98;;;0.77;;
41297;SDS011;27381;46.032;13.650;2022-10-26T08:54:53;1.38;;;0.80;;
41297;SDS011;27381;46.032;13.650;2022-10-26T09:02:19;3.67;;;0.93;;
41297;SDS011;27381;46.032;13.650;2022-10-26T09:04:44;3.33;;;0.50;;
41297;SDS011;27381;46.032;13.650;2022-10-26T09:10:00;1.05;;;0.90;;
41297;SDS011;27381;46.032;13.650;2022-10-26T09:23:20;5.05;;;0.50;;
41297;SDS011;27381;46.032;13.650;2022-10-26T09:25:52;1.02;;;0.70;;
41297;SDS011;27381;46.032;13.650;2022-10-26T09:28:21;0.63;;;0.63;;
41297;SDS011;27381;46.032;13.650;2022-10-26T09:30:46;7.40;;;0.93;;
41297;SDS011;27381;46.032;13.650;2022-10-26T09:33:17;7.05;;;1.73;;
41297;SDS011;27381;46.032;13.650;2022-10-26T09:38:12;0.50;;;0.30;;
41297;SDS011;27381;46.032;13.650;2022-10-26T09:40:41;0.70;;;0.52;;
41297;SDS011;27381;46.032;13.650;2022-10-26T09:43:16;0.82;;;0.65;;
41297;SDS011;27381;46.032;13.650;2022-10-26T09:45:50;0.90;;;0.63;;
41297;SDS011;27381;46.032;13.650;2022-10-26T09:50:42;0.68;;;0.60;;
41297;SDS011;27381;46.032;13.650;2022-10-26T09:53:09;1.25;;;0.52;;
41297;SDS011;27381;46.032;13.650;2022-10-26T09:55:37;2.33;;;1.00;;
41297;SDS011;27381;46.032;13.650;2022-10-26T09:58:05;0.63;;;0.50;;
41297;SDS011;27381;46.032;13.650;2022-10-26T10:00:33;1.92;;;0.43;;
41297;SDS011;27381;46.032;13.650;2022-10-26T10:02:59;1.75;;;0.70;;
41297;SDS011;27381;46.032;13.650;2022-10-26T10:05:28;4.43;;;1.42;;
41297;SDS011;27381;46.032;13.650;2022-10-26T10:10:38;1.58;;;1.05;;
41297;SDS011;27381;46.032;13.650;2022-10-26T10:13:13;0.65;;;0.57;;
41297;SDS011;27381;46.032;13.650;2022-10-26T10:15:39;1.38;;;0.40;;
41297;SDS011;27381;46.032;13.650;2022-10-26T10:18:04;2.42;;;0.73;;
41297;SDS011;27381;46.032;13.650;2022-10-26T10:20:30;1.02;;;0.73;;
41297;SDS011;27381;46.032;13.650;2022-10-26T10:23:00;1.85;;;0.75;;
41297;SDS011;27381;46.032;13.650;2022-10-26T10:25:46;3.50;;;1.35;;
41297;SDS011;27381;46.032;13.650;2022-10-26T10:28:20;2.50;;;1.20;;
41297;SDS011;27381;46.032;13.650;2022-10-26T10:30:59;2.22;;;1.10;;
41297;SDS011;27381;46.032;13.650;2022-10-26T10:33:32;2.10;;;1.10;;
41297;SDS011;27381;46.032;13.650;2022-10-26T10:35:59;2.30;;;1.55;;
41297;SDS011;27381;46.032;13.650;2022-10-26T10:38:24;3.88;;;1.27;;
41297;SDS011;27381;46.032;13.650;2022-10-26T10:40:57;2.00;;;1.05;;
41297;SDS011;27381;46.032;13.650;2022-10-26T10:43:23;1.80;;;1.30;;
41297;SDS011;27381;46.032;13.650;2022-10-26T10:45:50;2.63;;;1.40;;
41297;SDS011;27381;46.032;13.650;2022-10-26T10:48:22;2.90;;;1.77;;
41297;SDS011;27381;46.032;13.650;2022-10-26T10:50:53;4.20;;;1.65;;
41297;SDS011;27381;46.032;13.650;2022-10-26T10:53:24;4.72;;;0.95;;
41297;SDS011;27381;46.032;13.650;2022-10-26T10:58:30;2.30;;;1.63;;
41297;SDS011;27381;46.032;13.650;2022-10-26T11:01:01;1.90;;;1.67;;
41297;SDS011;27381;46.032;13.650;2022-10-26T11:06:17;5.55;;;2.08;;
41297;SDS011;27381;46.032;13.650;2022-10-26T11:11:11;5.40;;;2.55;;
41297;SDS011;27381;46.032;13.650;2022-10-26T11:13:43;4.40;;;2.53;;
41297;SDS011;27381;46.032;13.650;2022-10-26T11:16:14;5.45;;;2.53;;
41297;SDS011;27381;46.032;13.650;2022-10-26T11:18:54;9.15;;;2.10;;
41297;SDS011;27381;46.032;13.650;2022-10-26T11:21:30;3.53;;;2.25;;
41297;SDS011;27381;46.032;13.650;2022-10-26T11:26:27;2.67;;;1.85;;
41297;SDS011;27381;46.032;13.650;2022-10-26T11:28:57;2.85;;;2.03;;
41297;SDS011;27381;46.032;13.650;2022-10-26T11:31:27;7.43;;;3.45;;
41297;SDS011;27381;46.032;13.650;2022-10-26T11:34:04;4.05;;;2.78;;
41297;SDS011;27381;46.032;13.650;2022-10-26T11:36:32;4.10;;;2.33;;
41297;SDS011;27381;46.032;13.650;2022-10-26T11:42:14;7.97;;;2.85;;
41297;SDS011;27381;46.032;13.650;2022-10-26T11:44:30;4.80;;;2.10;;
41297;SDS011;27381;46.032;13.650;2022-10-26T11:47:00;5.97;;;2.67;;
41297;SDS011;27381;46.032;13.650;2022-10-26T11:49:28;4.65;;;2.70;;
41297;SDS011;27381;46.032;13.650;2022-10-26T11:57:39;5.63;;;2.47;;
41297;SDS011;27381;46.032;13.650;2022-10-26T12:00:15;4.07;;;2.60;;
41297;SDS011;27381;46.032;13.650;2022-10-26T12:02:42;5.28;;;2.63;;
41297;SDS011;27381;46.032;13.650;2022-10-26T12:07:39;5.53;;;3.25;;
41297;SDS011;27381;46.032;13.650;2022-10-26T12:10:14;5.32;;;2.85;;
41297;SDS011;27381;46.032;13.650;2022-10-26T12:17:35;7.40;;;2.90;;
41297;SDS011;27381;46.032;13.650;2022-10-26T12:20:05;6.68;;;2.67;;
41297;SDS011;27381;46.032;13.650;2022-10-26T12:22:38;5.97;;;3.55;;
41297;SDS011;27381;46.032;13.650;2022-10-26T12:37:50;5.53;;;3.20;;
41297;SDS011;27381;46.032;13.650;2022-10-26T12:45:38;4.97;;;3.10;;
41297;SDS011;27381;46.032;13.650;2022-10-26T12:48:04;4.57;;;2.75;;
41297;SDS011;27381;46.032;13.650;2022-10-26T12:50:30;8.40;;;3.67;;
41297;SDS011;27381;46.032;13.650;2022-10-26T12:53:04;7.03;;;4.10;;
41297;SDS011;27381;46.032;13.650;2022-10-26T13:00:47;6.78;;;3.53;;
41297;SDS011;27381;46.032;13.650;2022-10-26T13:08:36;10.95;;;3.72;;
41297;SDS011;27381;46.032;13.650;2022-10-26T13:11:04;5.32;;;3.15;;
41297;SDS011;27381;46.032;13.650;2022-10-26T13:13:31;6.15;;;3.15;;
41297;SDS011;27381;46.032;13.650;2022-10-26T13:15:57;3.50;;;2.72;;
41297;SDS011;27381;46.032;13.650;2022-10-26T13:18:23;7.82;;;3.20;;
41297;SDS011;27381;46.032;13.650;2022-10-26T13:23:30;6.60;;;2.65;;
41297;SDS011;27381;46.032;13.650;2022-10-26T13:26:00;4.93;;;3.55;;
41297;SDS011;27381;46.032;13.650;2022-10-26T13:28:30;5.35;;;2.80;;
41297;SDS011;27381;46.032;13.650;2022-10-26T13:30:56;6.30;;;4.20;;
41297;SDS011;27381;46.032;13.650;2022-10-26T13:33:23;5.18;;;3.30;;
41297;SDS011;27381;46.032;13.650;2022-10-26T13:35:51;5.85;;;3.63;;
41297;SDS011;27381;46.032;13.650;2022-10-26T13:38:19;5.18;;;2.65;;
41297;SDS011;27381;46.032;13.650;2022-10-26T13:40:46;10.32;;;4.13;;
41297;SDS011;27381;46.032;13.650;2022-10-26T13:43:20;4.65;;;2.33;;
41297;SDS011;27381;46.032;13.650;2022-10-26T13:45:57;3.20;;;2.47;;
41297;SDS011;27381;46.032;13.650;2022-10-26T13:48:30;7.35;;;2.65;;
41297;SDS011;27381;46.032;13.650;2022-10-26T13:51:00;9.82;;;3.55;;
41297;SDS011;27381;46.032;13.650;2022-10-26T13:56:42;5.90;;;3.45;;
41297;SDS011;27381;46.032;13.650;2022-10-26T13:59:30;4.40;;;2.65;;
41297;SDS011;27381;46.032;13.650;2022-10-26T14:01:37;5.28;;;2.67;;
41297;SDS011;27381;46.032;13.650;2022-10-26T14:04:17;6.78;;;3.88;;
41297;SDS011;27381;46.032;13.650;2022-10-26T14:06:47;10.32;;;3.20;;
41297;SDS011;27381;46.032;13.650;2022-10-26T14:09:14;6.63;;;2.97;;
41297;SDS011;27381;46.032;13.650;2022-10-26T14:14:12;8.30;;;3.90;;
41297;SDS011;27381;46.032;13.650;2022-10-26T14:16:39;5.35;;;2.67;;
41297;SDS011;27381;46.032;13.650;2022-10-26T14:19:18;6.18;;;3.20;;
41297;SDS011;27381;46.032;13.650;2022-10-26T14:21:46;9.25;;;2.88;;
41297;SDS011;27381;46.032;13.650;2022-10-26T14:24:22;5.85;;;2.72;;
41297;SDS011;27381;46.032;13.650;2022-10-26T14:26:48;6.05;;;3.35;;
41297;SDS011;27381;46.032;13.650;2022-10-26T14:29:24;3.47;;;2.50;;
41297;SDS011;27381;46.032;13.650;2022-10-26T14:31:50;5.32;;;2.85;;
41297;SDS011;27381;46.032;13.650;2022-10-26T14:34:18;6.85;;;3.40;;
41297;SDS011;27381;46.032;13.650;2022-10-26T14:36:49;3.70;;;2.72;;
41297;SDS011;27381;46.032;13.650;2022-10-26T14:41:41;6.63;;;2.55;;
41297;SDS011;27381;46.032;13.650;2022-10-26T14:44:13;6.47;;;2.72;;
41297;SDS011;27381;46.032;13.650;2022-10-26T14:46:40;5.85;;;3.75;;
41297;SDS011;27381;46.032;13.650;2022-10-26T14:49:11;5.13;;;3.00;;
41297;SDS011;27381;46.032;13.650;2022-10-26T14:51:42;5.18;;;3.33;;
41297;SDS011;27381;46.032;13.650;2022-10-26T14:54:24;7.40;;;3.47;;
41297;SDS011;27381;46.032;13.650;2022-10-26T14:56:50;5.78;;;3.40;;
41297;SDS011;27381;46.032;13.650;2022-10-26T15:01:51;10.80;;;3.50;;
41297;SDS011;27381;46.032;13.650;2022-10-26T15:04:38;5.15;;;2.45;;
41297;SDS011;27381;46.032;13.650;2022-10-26T15:09:48;5.75;;;3.15;;
41297;SDS011;27381;46.032;13.650;2022-10-26T15:12:33;15.52;;;3.42;;
41297;SDS011;27381;46.032;13.650;2022-10-26T15:15:06;5.53;;;3.47;;
41297;SDS011;27381;46.032;13.650;2022-10-26T15:17:35;8.80;;;3.30;;
41297;SDS011;27381;46.032;13.650;2022-10-26T15:20:03;4.47;;;2.58;;
41297;SDS011;27381;46.032;13.650;2022-10-26T15:22:29;5.05;;;2.90;;
41297;SDS011;27381;46.032;13.650;2022-10-26T15:24:55;6.40;;;3.17;;
41297;SDS011;27381;46.032;13.650;2022-10-26T15:27:22;4.18;;;2.85;;
41297;SDS011;27381;46.032;13.650;2022-10-26T15:29:49;6.40;;;3.05;;
41297;SDS011;27381;46.032;13.650;2022-10-26T15:34:46;8.38;;;2.90;;
41297;SDS011;27381;46.032;13.650;2022-10-26T15:37:12;7.53;;;3.42;;
41297;SDS011;27381;46.032;13.650;2022-10-26T15:39:38;8.32;;;2.90;;
41297;SDS011;27381;46.032;13.650;2022-10-26T15:42:03;6.40;;;3.28;;
41297;SDS011;27381;46.032;13.650;2022-10-26T15:44:32;6.10;;;3.35;;
41297;SDS011;27381;46.032;13.650;2022-10-26T15:46:59;6.25;;;3.55;;
41297;SDS011;27381;46.032;13.650;2022-10-26T15:49:25;9.00;;;3.22;;
41297;SDS011;27381;46.032;13.650;2022-10-26T15:51:51;4.32;;;3.47;;
41297;SDS011;27381;46.032;13.650;2022-10-26T15:54:16;6.00;;;3.65;;
41297;SDS011;27381;46.032;13.650;2022-10-26T15:56:42;6.35;;;3.38;;
41297;SDS011;27381;46.032;13.650;2022-10-26T15:59:15;6.45;;;2.67;;
41297;SDS011;27381;46.032;13.650;2022-10-26T16:01:41;6.18;;;3.35;;
41297;SDS011;27381;46.032;13.650;2022-10-26T16:04:07;6.38;;;3.47;;
41297;SDS011;27381;46.032;13.650;2022-10-26T16:06:33;7.15;;;3.30;;
41297;SDS011;27381;46.032;13.650;2022-10-26T16:09:00;5.65;;;3.33;;
41297;SDS011;27381;46.032;13.650;2022-10-26T16:11:26;7.65;;;4.32;;
41297;SDS011;27381;46.032;13.650;2022-10-26T16:13:52;14.98;;;3.78;;
41297;SDS011;27381;46.032;13.650;2022-10-26T16:16:18;7.05;;;3.60;;
41297;SDS011;27381;46.032;13.650;2022-10-26T16:18:44;5.57;;;3.50;;
41297;SDS011;27381;46.032;13.650;2022-10-26T16:21:10;7.25;;;3.85;;
41297;SDS011;27381;46.032;13.650;2022-10-26T16:23:36;7.18;;;4.22;;
41297;SDS011;27381;46.032;13.650;2022-10-26T16:26:02;6.55;;;4.00;;
41297;SDS011;27381;46.032;13.650;2022-10-26T16:28:28;6.75;;;3.63;;
41297;SDS011;27381;46.032;13.650;2022-10-26T16:30:57;9.02;;;3.40;;
41297;SDS011;27381;46.032;13.650;2022-10-26T16:33:23;5.82;;;3.80;;
41297;SDS011;27381;46.032;13.650;2022-10-26T16:35:53;8.55;;;4.70;;
41297;SDS011;27381;46.032;13.650;2022-10-26T16:38:19;9.73;;;3.60;;
41297;SDS011;27381;46.032;13.650;2022-10-26T16:40:45;10.32;;;4.13;;
41297;SDS011;27381;46.032;13.650;2022-10-26T16:43:10;7.20;;;4.57;;
41297;SDS011;27381;46.032;13.650;2022-10-26T16:45:37;6.63;;;3.60;;
41297;SDS011;27381;46.032;13.650;2022-10-26T16:48:03;7.50;;;4.10;;
41297;SDS011;27381;46.032;13.650;2022-10-26T16:50:33;7.90;;;4.65;;
41297;SDS011;27381;46.032;13.650;2022-10-26T16:52:59;8.55;;;4.10;;
41297;SDS011;27381;46.032;13.650;2022-10-26T16:55:24;8.07;;;4.25;;
41297;SDS011;27381;46.032;13.650;2022-10-26T16:57:49;7.00;;;3.55;;
41297;SDS011;27381;46.032;13.650;2022-10-26T17:00:15;5.75;;;4.68;;
41297;SDS011;27381;46.032;13.650;2022-10-26T17:02:40;9.38;;;4.13;;
41297;SDS011;27381;46.032;13.650;2022-10-26T17:05:06;11.90;;;3.40;;
41297;SDS011;27381;46.032;13.650;2022-10-26T17:07:33;9.65;;;4.43;;